Pimenteiras, Brazil
Current Conditions -  °F | °C
As of 10:00 AM on Friday 24 Oct 2014 (Local Time) from SBTE Reporting Station
Few Clouds Few Clouds  
Wind Chill: 91°   Ceiling: Unl
Heat Index: 98°   Visibility: 6mi
Dew Point: 72°   Wind: 6mph
Humidity: 52%   Direction: 140°SE
Pressure: 29.88"   Gusts: NA
Location:  6.25°S, 41.42°W
Report Text: SBTE 241300Z 14005KT 9999 FEW030 33/22 Q1012
Loading
Personal Weather Stations






























Interactive Weather Map
Tropical Storm Tracking
New forecast layout! Learn more

10-Day Weather Forecast

Advertisements
Track Severe Weather on mobile